sensor_id;sensor_type;location;lat;lon;timestamp;P1;durP1;ratioP1;P2;durP2;ratioP2
55931;SDS011;41837;55.700;37.984;2023-08-08T00:00:47;6.15;;;3.70;;
55931;SDS011;41837;55.700;37.984;2023-08-08T00:03:13;6.32;;;3.33;;
55931;SDS011;41837;55.700;37.984;2023-08-08T00:05:40;6.60;;;3.58;;
55931;SDS011;41837;55.700;37.984;2023-08-08T00:08:06;5.00;;;3.25;;
55931;SDS011;41837;55.700;37.984;2023-08-08T00:10:32;6.55;;;3.95;;
55931;SDS011;41837;55.700;37.984;2023-08-08T00:12:59;8.63;;;3.95;;
55931;SDS011;41837;55.700;37.984;2023-08-08T00:15:25;8.32;;;3.40;;
55931;SDS011;41837;55.700;37.984;2023-08-08T00:17:51;8.52;;;3.63;;
55931;SDS011;41837;55.700;37.984;2023-08-08T00:20:17;10.05;;;4.03;;
55931;SDS011;41837;55.700;37.984;2023-08-08T00:22:43;7.53;;;3.60;;
55931;SDS011;41837;55.700;37.984;2023-08-08T00:25:09;6.57;;;3.50;;
55931;SDS011;41837;55.700;37.984;2023-08-08T00:27:36;9.05;;;3.80;;
55931;SDS011;41837;55.700;37.984;2023-08-08T00:30:07;7.63;;;4.07;;
55931;SDS011;41837;55.700;37.984;2023-08-08T00:32:37;7.20;;;3.15;;
55931;SDS011;41837;55.700;37.984;2023-08-08T00:35:04;5.05;;;3.20;;
55931;SDS011;41837;55.700;37.984;2023-08-08T00:37:30;6.32;;;2.90;;
55931;SDS011;41837;55.700;37.984;2023-08-08T00:39:59;6.25;;;3.08;;
55931;SDS011;41837;55.700;37.984;2023-08-08T00:42:25;5.90;;;3.15;;
55931;SDS011;41837;55.700;37.984;2023-08-08T00:44:51;4.78;;;2.78;;
55931;SDS011;41837;55.700;37.984;2023-08-08T00:47:18;11.43;;;3.00;;
55931;SDS011;41837;55.700;37.984;2023-08-08T00:49:44;3.47;;;2.90;;
55931;SDS011;41837;55.700;37.984;2023-08-08T00:52:14;4.25;;;2.50;;
55931;SDS011;41837;55.700;37.984;2023-08-08T00:54:40;7.00;;;2.92;;
55931;SDS011;41837;55.700;37.984;2023-08-08T00:57:06;5.97;;;3.15;;
55931;SDS011;41837;55.700;37.984;2023-08-08T00:59:32;4.95;;;3.03;;
55931;SDS011;41837;55.700;37.984;2023-08-08T01:01:59;4.78;;;2.90;;
55931;SDS011;41837;55.700;37.984;2023-08-08T01:04:25;5.43;;;2.97;;
55931;SDS011;41837;55.700;37.984;2023-08-08T01:10:08;3.95;;;2.90;;
55931;SDS011;41837;55.700;37.984;2023-08-08T01:12:38;5.20;;;2.92;;
55931;SDS011;41837;55.700;37.984;2023-08-08T01:15:16;8.38;;;2.83;;
55931;SDS011;41837;55.700;37.984;2023-08-08T01:17:44;6.00;;;2.75;;
55931;SDS011;41837;55.700;37.984;2023-08-08T01:20:12;3.65;;;2.85;;
55931;SDS011;41837;55.700;37.984;2023-08-08T01:22:45;4.95;;;2.70;;
55931;SDS011;41837;55.700;37.984;2023-08-08T01:25:22;7.82;;;3.28;;
55931;SDS011;41837;55.700;37.984;2023-08-08T01:27:49;5.35;;;2.78;;
55931;SDS011;41837;55.700;37.984;2023-08-08T01:30:15;5.53;;;2.85;;
55931;SDS011;41837;55.700;37.984;2023-08-08T01:32:41;11.13;;;2.80;;
55931;SDS011;41837;55.700;37.984;2023-08-08T01:35:07;8.35;;;3.35;;
55931;SDS011;41837;55.700;37.984;2023-08-08T01:37:44;7.07;;;3.08;;
55931;SDS011;41837;55.700;37.984;2023-08-08T01:40:15;4.55;;;2.92;;
55931;SDS011;41837;55.700;37.984;2023-08-08T01:42:46;3.38;;;2.47;;
55931;SDS011;41837;55.700;37.984;2023-08-08T01:45:17;7.03;;;2.88;;
55931;SDS011;41837;55.700;37.984;2023-08-08T01:47:53;5.72;;;2.58;;
55931;SDS011;41837;55.700;37.984;2023-08-08T01:50:20;3.15;;;2.53;;
55931;SDS011;41837;55.700;37.984;2023-08-08T01:52:47;7.22;;;2.53;;
55931;SDS011;41837;55.700;37.984;2023-08-08T01:55:13;6.68;;;2.92;;
55931;SDS011;41837;55.700;37.984;2023-08-08T01:57:40;6.82;;;2.67;;
55931;SDS011;41837;55.700;37.984;2023-08-08T02:00:06;5.45;;;2.58;;
55931;SDS011;41837;55.700;37.984;2023-08-08T02:02:41;4.95;;;2.88;;
55931;SDS011;41837;55.700;37.984;2023-08-08T02:05:08;5.00;;;2.90;;
55931;SDS011;41837;55.700;37.984;2023-08-08T02:07:34;7.20;;;2.80;;
55931;SDS011;41837;55.700;37.984;2023-08-08T02:10:01;12.20;;;3.03;;
55931;SDS011;41837;55.700;37.984;2023-08-08T02:12:29;6.95;;;3.20;;
55931;SDS011;41837;55.700;37.984;2023-08-08T02:14:56;6.30;;;2.80;;
55931;SDS011;41837;55.700;37.984;2023-08-08T02:17:24;5.55;;;3.22;;
55931;SDS011;41837;55.700;37.984;2023-08-08T02:19:51;7.50;;;3.00;;
55931;SDS011;41837;55.700;37.984;2023-08-08T02:22:19;5.07;;;2.95;;
55931;SDS011;41837;55.700;37.984;2023-08-08T02:24:45;9.32;;;2.80;;
55931;SDS011;41837;55.700;37.984;2023-08-08T02:27:11;4.75;;;2.80;;
55931;SDS011;41837;55.700;37.984;2023-08-08T02:29:38;3.80;;;2.75;;
55931;SDS011;41837;55.700;37.984;2023-08-08T02:32:04;14.02;;;3.05;;
55931;SDS011;41837;55.700;37.984;2023-08-08T02:34:30;6.25;;;2.55;;
55931;SDS011;41837;55.700;37.984;2023-08-08T02:36:56;10.35;;;2.90;;
55931;SDS011;41837;55.700;37.984;2023-08-08T02:39:22;9.90;;;2.80;;
55931;SDS011;41837;55.700;37.984;2023-08-08T02:41:49;6.63;;;2.78;;
55931;SDS011;41837;55.700;37.984;2023-08-08T02:44:15;5.10;;;2.72;;
55931;SDS011;41837;55.700;37.984;2023-08-08T02:46:42;7.45;;;2.95;;
55931;SDS011;41837;55.700;37.984;2023-08-08T02:49:08;5.30;;;2.70;;
55931;SDS011;41837;55.700;37.984;2023-08-08T02:51:34;8.35;;;2.95;;
55931;SDS011;41837;55.700;37.984;2023-08-08T02:54:01;4.78;;;2.85;;
55931;SDS011;41837;55.700;37.984;2023-08-08T02:56:29;5.28;;;2.95;;
55931;SDS011;41837;55.700;37.984;2023-08-08T02:58:55;3.35;;;2.75;;
55931;SDS011;41837;55.700;37.984;2023-08-08T03:01:22;8.55;;;3.13;;
55931;SDS011;41837;55.700;37.984;2023-08-08T03:03:48;6.47;;;2.95;;
55931;SDS011;41837;55.700;37.984;2023-08-08T03:06:17;10.05;;;3.08;;
55931;SDS011;41837;55.700;37.984;2023-08-08T03:08:44;4.60;;;2.53;;
55931;SDS011;41837;55.700;37.984;2023-08-08T03:11:10;6.57;;;3.08;;
55931;SDS011;41837;55.700;37.984;2023-08-08T03:13:36;17.27;;;3.20;;
55931;SDS011;41837;55.700;37.984;2023-08-08T03:16:03;7.88;;;3.10;;
55931;SDS011;41837;55.700;37.984;2023-08-08T03:18:30;5.20;;;2.95;;
55931;SDS011;41837;55.700;37.984;2023-08-08T03:20:56;10.45;;;3.67;;
55931;SDS011;41837;55.700;37.984;2023-08-08T03:23:23;10.40;;;3.13;;
55931;SDS011;41837;55.700;37.984;2023-08-08T03:25:50;13.05;;;3.13;;
55931;SDS011;41837;55.700;37.984;2023-08-08T03:28:17;8.32;;;2.90;;
55931;SDS011;41837;55.700;37.984;2023-08-08T03:30:43;8.70;;;3.33;;
55931;SDS011;41837;55.700;37.984;2023-08-08T03:33:11;8.52;;;3.15;;
55931;SDS011;41837;55.700;37.984;2023-08-08T03:35:38;18.02;;;3.30;;
55931;SDS011;41837;55.700;37.984;2023-08-08T03:38:04;9.40;;;3.22;;
55931;SDS011;41837;55.700;37.984;2023-08-08T03:40:31;8.07;;;3.20;;
55931;SDS011;41837;55.700;37.984;2023-08-08T03:42:57;5.55;;;3.30;;
55931;SDS011;41837;55.700;37.984;2023-08-08T03:45:23;5.50;;;2.83;;
55931;SDS011;41837;55.700;37.984;2023-08-08T03:47:51;4.38;;;3.15;;
55931;SDS011;41837;55.700;37.984;2023-08-08T03:50:17;5.43;;;3.28;;
55931;SDS011;41837;55.700;37.984;2023-08-08T03:52:43;6.22;;;3.20;;
55931;SDS011;41837;55.700;37.984;2023-08-08T03:55:11;6.82;;;3.30;;
55931;SDS011;41837;55.700;37.984;2023-08-08T03:57:38;6.07;;;3.15;;
55931;SDS011;41837;55.700;37.984;2023-08-08T04:00:04;5.47;;;3.05;;
55931;SDS011;41837;55.700;37.984;2023-08-08T04:02:39;4.53;;;2.92;;
55931;SDS011;41837;55.700;37.984;2023-08-08T04:05:06;9.48;;;3.17;;
55931;SDS011;41837;55.700;37.984;2023-08-08T04:07:33;4.97;;;3.17;;
55931;SDS011;41837;55.700;37.984;2023-08-08T04:09:59;5.93;;;3.13;;
55931;SDS011;41837;55.700;37.984;2023-08-08T04:12:31;4.07;;;2.88;;
55931;SDS011;41837;55.700;37.984;2023-08-08T04:15:00;7.68;;;3.35;;
55931;SDS011;41837;55.700;37.984;2023-08-08T04:17:26;10.20;;;3.33;;
55931;SDS011;41837;55.700;37.984;2023-08-08T04:19:52;6.95;;;3.20;;
55931;SDS011;41837;55.700;37.984;2023-08-08T04:22:19;6.47;;;3.20;;
55931;SDS011;41837;55.700;37.984;2023-08-08T04:24:45;7.35;;;3.38;;
55931;SDS011;41837;55.700;37.984;2023-08-08T04:27:11;6.45;;;3.42;;
55931;SDS011;41837;55.700;37.984;2023-08-08T04:29:37;9.05;;;3.35;;
55931;SDS011;41837;55.700;37.984;2023-08-08T04:32:04;6.80;;;3.28;;
55931;SDS011;41837;55.700;37.984;2023-08-08T04:34:30;9.50;;;3.33;;
55931;SDS011;41837;55.700;37.984;2023-08-08T04:36:56;7.07;;;3.15;;
55931;SDS011;41837;55.700;37.984;2023-08-08T04:39:23;8.13;;;3.10;;
55931;SDS011;41837;55.700;37.984;2023-08-08T04:41:49;7.72;;;3.50;;
55931;SDS011;41837;55.700;37.984;2023-08-08T04:44:15;12.80;;;3.88;;
55931;SDS011;41837;55.700;37.984;2023-08-08T04:46:41;7.70;;;3.78;;
55931;SDS011;41837;55.700;37.984;2023-08-08T04:49:07;10.93;;;3.70;;
55931;SDS011;41837;55.700;37.984;2023-08-08T04:51:34;11.60;;;3.70;;
55931;SDS011;41837;55.700;37.984;2023-08-08T04:54:00;8.18;;;3.20;;
55931;SDS011;41837;55.700;37.984;2023-08-08T04:56:26;14.30;;;3.78;;
55931;SDS011;41837;55.700;37.984;2023-08-08T04:58:54;8.57;;;3.55;;
55931;SDS011;41837;55.700;37.984;2023-08-08T05:01:20;15.65;;;4.32;;
55931;SDS011;41837;55.700;37.984;2023-08-08T05:03:47;7.20;;;3.63;;
55931;SDS011;41837;55.700;37.984;2023-08-08T05:06:14;10.25;;;3.67;;
55931;SDS011;41837;55.700;37.984;2023-08-08T05:08:40;8.80;;;4.18;;
55931;SDS011;41837;55.700;37.984;2023-08-08T05:11:09;9.82;;;3.53;;
55931;SDS011;41837;55.700;37.984;2023-08-08T05:13:36;8.32;;;3.72;;
55931;SDS011;41837;55.700;37.984;2023-08-08T05:16:03;8.10;;;4.25;;
55931;SDS011;41837;55.700;37.984;2023-08-08T05:18:29;14.98;;;4.43;;
55931;SDS011;41837;55.700;37.984;2023-08-08T05:20:56;9.82;;;4.00;;
55931;SDS011;41837;55.700;37.984;2023-08-08T05:23:22;6.47;;;3.88;;
55931;SDS011;41837;55.700;37.984;2023-08-08T05:25:48;8.15;;;4.20;;
55931;SDS011;41837;55.700;37.984;2023-08-08T05:28:14;11.48;;;5.40;;
55931;SDS011;41837;55.700;37.984;2023-08-08T05:30:41;7.65;;;4.47;;
55931;SDS011;41837;55.700;37.984;2023-08-08T05:33:08;5.43;;;3.92;;
55931;SDS011;41837;55.700;37.984;2023-08-08T05:35:34;9.52;;;4.28;;
55931;SDS011;41837;55.700;37.984;2023-08-08T05:38:03;8.20;;;4.38;;
55931;SDS011;41837;55.700;37.984;2023-08-08T05:40:29;5.53;;;4.03;;
55931;SDS011;41837;55.700;37.984;2023-08-08T05:42:55;11.45;;;4.00;;
55931;SDS011;41837;55.700;37.984;2023-08-08T05:45:22;9.80;;;4.20;;
55931;SDS011;41837;55.700;37.984;2023-08-08T05:47:48;9.35;;;4.10;;
55931;SDS011;41837;55.700;37.984;2023-08-08T05:50:14;5.47;;;3.70;;
55931;SDS011;41837;55.700;37.984;2023-08-08T05:52:40;11.57;;;3.95;;
55931;SDS011;41837;55.700;37.984;2023-08-08T05:55:07;12.70;;;4.43;;
55931;SDS011;41837;55.700;37.984;2023-08-08T05:57:33;8.35;;;4.28;;
55931;SDS011;41837;55.700;37.984;2023-08-08T06:00:00;9.10;;;4.00;;
55931;SDS011;41837;55.700;37.984;2023-08-08T06:02:31;7.40;;;4.13;;
55931;SDS011;41837;55.700;37.984;2023-08-08T06:04:58;10.40;;;4.05;;
55931;SDS011;41837;55.700;37.984;2023-08-08T06:07:25;8.80;;;3.90;;
55931;SDS011;41837;55.700;37.984;2023-08-08T06:09:52;7.28;;;3.90;;
55931;SDS011;41837;55.700;37.984;2023-08-08T06:12:18;9.77;;;3.83;;
55931;SDS011;41837;55.700;37.984;2023-08-08T06:14:44;8.25;;;4.00;;
55931;SDS011;41837;55.700;37.984;2023-08-08T06:17:11;5.65;;;3.72;;
55931;SDS011;41837;55.700;37.984;2023-08-08T06:19:38;8.68;;;3.85;;
55931;SDS011;41837;55.700;37.984;2023-08-08T06:22:04;9.32;;;4.00;;
55931;SDS011;41837;55.700;37.984;2023-08-08T06:24:30;6.75;;;3.95;;
55931;SDS011;41837;55.700;37.984;2023-08-08T06:26:57;7.90;;;3.60;;
55931;SDS011;41837;55.700;37.984;2023-08-08T06:29:23;5.75;;;4.00;;
55931;SDS011;41837;55.700;37.984;2023-08-08T06:31:50;9.23;;;3.80;;
55931;SDS011;41837;55.700;37.984;2023-08-08T06:34:16;13.38;;;4.15;;
55931;SDS011;41837;55.700;37.984;2023-08-08T06:36:42;8.55;;;4.30;;
55931;SDS011;41837;55.700;37.984;2023-08-08T06:39:08;16.27;;;5.22;;
55931;SDS011;41837;55.700;37.984;2023-08-08T06:41:37;10.77;;;4.00;;
55931;SDS011;41837;55.700;37.984;2023-08-08T06:44:04;15.32;;;5.05;;
55931;SDS011;41837;55.700;37.984;2023-08-08T06:46:33;7.20;;;3.97;;
55931;SDS011;41837;55.700;37.984;2023-08-08T06:49:00;7.60;;;3.97;;
55931;SDS011;41837;55.700;37.984;2023-08-08T06:51:26;12.25;;;4.22;;
55931;SDS011;41837;55.700;37.984;2023-08-08T06:53:53;6.60;;;4.43;;
55931;SDS011;41837;55.700;37.984;2023-08-08T06:56:19;6.82;;;4.10;;
55931;SDS011;41837;55.700;37.984;2023-08-08T06:58:45;4.97;;;4.05;;
55931;SDS011;41837;55.700;37.984;2023-08-08T07:01:13;11.15;;;3.88;;
55931;SDS011;41837;55.700;37.984;2023-08-08T07:03:39;6.53;;;4.18;;
55931;SDS011;41837;55.700;37.984;2023-08-08T07:06:05;8.10;;;4.13;;
55931;SDS011;41837;55.700;37.984;2023-08-08T07:08:32;9.00;;;4.25;;
55931;SDS011;41837;55.700;37.984;2023-08-08T07:10:59;5.43;;;4.13;;
55931;SDS011;41837;55.700;37.984;2023-08-08T07:13:25;8.27;;;4.30;;
55931;SDS011;41837;55.700;37.984;2023-08-08T07:15:52;12.02;;;4.40;;
55931;SDS011;41837;55.700;37.984;2023-08-08T07:18:19;6.05;;;4.88;;
55931;SDS011;41837;55.700;37.984;2023-08-08T07:20:45;9.88;;;6.20;;
55931;SDS011;41837;55.700;37.984;2023-08-08T07:23:11;8.23;;;4.72;;
55931;SDS011;41837;55.700;37.984;2023-08-08T07:25:38;6.80;;;4.15;;
55931;SDS011;41837;55.700;37.984;2023-08-08T07:28:04;8.65;;;4.90;;
55931;SDS011;41837;55.700;37.984;2023-08-08T07:30:31;8.18;;;4.47;;
55931;SDS011;41837;55.700;37.984;2023-08-08T07:32:58;12.23;;;4.90;;
55931;SDS011;41837;55.700;37.984;2023-08-08T07:35:27;8.73;;;4.45;;
55931;SDS011;41837;55.700;37.984;2023-08-08T07:37:54;10.35;;;5.03;;
55931;SDS011;41837;55.700;37.984;2023-08-08T07:40:20;9.52;;;4.93;;
55931;SDS011;41837;55.700;37.984;2023-08-08T07:42:47;10.85;;;4.97;;
55931;SDS011;41837;55.700;37.984;2023-08-08T07:45:15;9.18;;;4.60;;
55931;SDS011;41837;55.700;37.984;2023-08-08T07:47:42;15.13;;;4.80;;
55931;SDS011;41837;55.700;37.984;2023-08-08T07:50:09;12.80;;;5.30;;
55931;SDS011;41837;55.700;37.984;2023-08-08T07:52:38;10.48;;;4.82;;
55931;SDS011;41837;55.700;37.984;2023-08-08T07:55:06;9.57;;;4.70;;
55931;SDS011;41837;55.700;37.984;2023-08-08T07:57:33;11.30;;;4.88;;
55931;SDS011;41837;55.700;37.984;2023-08-08T08:00:01;10.02;;;4.68;;
55931;SDS011;41837;55.700;37.984;2023-08-08T08:02:41;9.25;;;4.50;;
55931;SDS011;41837;55.700;37.984;2023-08-08T08:05:11;12.48;;;4.63;;
55931;SDS011;41837;55.700;37.984;2023-08-08T08:07:39;9.00;;;5.00;;
55931;SDS011;41837;55.700;37.984;2023-08-08T08:10:08;12.48;;;5.15;;
55931;SDS011;41837;55.700;37.984;2023-08-08T08:12:35;10.48;;;5.43;;
55931;SDS011;41837;55.700;37.984;2023-08-08T08:15:02;11.80;;;4.85;;
55931;SDS011;41837;55.700;37.984;2023-08-08T08:17:32;9.70;;;4.72;;
55931;SDS011;41837;55.700;37.984;2023-08-08T08:19:58;12.23;;;5.20;;
55931;SDS011;41837;55.700;37.984;2023-08-08T08:22:25;10.95;;;5.40;;
55931;SDS011;41837;55.700;37.984;2023-08-08T08:24:52;12.73;;;5.00;;
55931;SDS011;41837;55.700;37.984;2023-08-08T08:27:18;12.88;;;5.40;;
55931;SDS011;41837;55.700;37.984;2023-08-08T08:29:46;10.10;;;5.32;;
55931;SDS011;41837;55.700;37.984;2023-08-08T08:32:12;13.30;;;4.80;;
55931;SDS011;41837;55.700;37.984;2023-08-08T08:34:38;10.23;;;5.13;;
55931;SDS011;41837;55.700;37.984;2023-08-08T08:37:05;16.20;;;5.13;;
55931;SDS011;41837;55.700;37.984;2023-08-08T08:39:32;11.80;;;5.00;;
55931;SDS011;41837;55.700;37.984;2023-08-08T08:41:59;8.68;;;5.30;;
55931;SDS011;41837;55.700;37.984;2023-08-08T08:44:31;19.73;;;5.65;;
55931;SDS011;41837;55.700;37.984;2023-08-08T08:46:59;12.57;;;6.03;;
55931;SDS011;41837;55.700;37.984;2023-08-08T08:49:30;12.77;;;5.32;;
55931;SDS011;41837;55.700;37.984;2023-08-08T08:51:59;10.68;;;5.97;;
55931;SDS011;41837;55.700;37.984;2023-08-08T08:54:30;13.05;;;5.60;;
55931;SDS011;41837;55.700;37.984;2023-08-08T08:56:57;11.43;;;6.15;;
55931;SDS011;41837;55.700;37.984;2023-08-08T08:59:26;16.90;;;8.40;;
55931;SDS011;41837;55.700;37.984;2023-08-08T09:01:53;25.65;;;15.02;;
55931;SDS011;41837;55.700;37.984;2023-08-08T09:04:22;19.05;;;9.52;;
55931;SDS011;41837;55.700;37.984;2023-08-08T09:06:52;16.90;;;7.30;;
55931;SDS011;41837;55.700;37.984;2023-08-08T09:09:20;23.83;;;11.65;;
55931;SDS011;41837;55.700;37.984;2023-08-08T09:11:53;25.73;;;13.25;;
55931;SDS011;41837;55.700;37.984;2023-08-08T09:14:23;15.55;;;10.30;;
55931;SDS011;41837;55.700;37.984;2023-08-08T09:16:52;15.52;;;9.40;;
55931;SDS011;41837;55.700;37.984;2023-08-08T09:19:20;25.02;;;9.48;;
55931;SDS011;41837;55.700;37.984;2023-08-08T09:21:50;16.88;;;7.70;;
55931;SDS011;41837;55.700;37.984;2023-08-08T09:24:18;23.88;;;9.93;;
55931;SDS011;41837;55.700;37.984;2023-08-08T09:26:44;20.42;;;9.32;;
55931;SDS011;41837;55.700;37.984;2023-08-08T09:29:12;13.77;;;9.20;;
55931;SDS011;41837;55.700;37.984;2023-08-08T09:31:41;16.83;;;9.40;;
55931;SDS011;41837;55.700;37.984;2023-08-08T09:34:08;19.27;;;8.15;;
55931;SDS011;41837;55.700;37.984;2023-08-08T09:36:35;18.05;;;9.35;;
55931;SDS011;41837;55.700;37.984;2023-08-08T09:39:02;16.85;;;9.02;;
55931;SDS011;41837;55.700;37.984;2023-08-08T09:41:29;19.42;;;10.48;;
55931;SDS011;41837;55.700;37.984;2023-08-08T09:43:58;16.17;;;9.57;;
55931;SDS011;41837;55.700;37.984;2023-08-08T09:46:26;22.25;;;11.07;;
55931;SDS011;41837;55.700;37.984;2023-08-08T09:48:55;20.20;;;9.80;;
55931;SDS011;41837;55.700;37.984;2023-08-08T09:51:23;32.58;;;16.35;;
55931;SDS011;41837;55.700;37.984;2023-08-08T09:53:50;20.05;;;11.82;;
55931;SDS011;41837;55.700;37.984;2023-08-08T09:56:17;26.23;;;10.10;;
55931;SDS011;41837;55.700;37.984;2023-08-08T09:58:43;24.25;;;10.23;;
55931;SDS011;41837;55.700;37.984;2023-08-08T10:01:12;21.40;;;9.68;;
55931;SDS011;41837;55.700;37.984;2023-08-08T10:03:40;22.75;;;8.98;;
55931;SDS011;41837;55.700;37.984;2023-08-08T10:06:10;21.35;;;9.80;;
55931;SDS011;41837;55.700;37.984;2023-08-08T10:08:37;31.02;;;10.57;;
55931;SDS011;41837;55.700;37.984;2023-08-08T10:11:04;27.02;;;11.27;;
55931;SDS011;41837;55.700;37.984;2023-08-08T10:13:35;20.10;;;10.23;;
55931;SDS011;41837;55.700;37.984;2023-08-08T10:16:07;30.42;;;10.30;;
55931;SDS011;41837;55.700;37.984;2023-08-08T10:18:34;28.40;;;10.93;;
55931;SDS011;41837;55.700;37.984;2023-08-08T10:21:03;25.42;;;13.43;;
55931;SDS011;41837;55.700;37.984;2023-08-08T10:23:35;25.92;;;10.73;;
55931;SDS011;41837;55.700;37.984;2023-08-08T10:26:03;22.67;;;10.93;;
55931;SDS011;41837;55.700;37.984;2023-08-08T10:28:29;21.48;;;9.90;;
55931;SDS011;41837;55.700;37.984;2023-08-08T10:31:00;17.75;;;9.32;;
55931;SDS011;41837;55.700;37.984;2023-08-08T10:33:40;24.67;;;10.18;;
55931;SDS011;41837;55.700;37.984;2023-08-08T10:36:09;24.98;;;11.73;;
55931;SDS011;41837;55.700;37.984;2023-08-08T10:38:48;19.95;;;11.80;;
55931;SDS011;41837;55.700;37.984;2023-08-08T10:41:18;25.80;;;11.20;;
55931;SDS011;41837;55.700;37.984;2023-08-08T10:43:49;23.60;;;11.52;;
55931;SDS011;41837;55.700;37.984;2023-08-08T10:46:23;18.60;;;9.25;;
55931;SDS011;41837;55.700;37.984;2023-08-08T10:48:52;20.50;;;9.13;;
55931;SDS011;41837;55.700;37.984;2023-08-08T10:51:19;27.45;;;9.32;;
55931;SDS011;41837;55.700;37.984;2023-08-08T10:53:46;17.75;;;9.38;;
55931;SDS011;41837;55.700;37.984;2023-08-08T10:56:13;16.40;;;7.57;;
55931;SDS011;41837;55.700;37.984;2023-08-08T10:58:40;18.08;;;9.23;;
55931;SDS011;41837;55.700;37.984;2023-08-08T11:01:07;22.50;;;8.85;;
55931;SDS011;41837;55.700;37.984;2023-08-08T11:03:35;16.58;;;8.57;;
55931;SDS011;41837;55.700;37.984;2023-08-08T11:06:03;17.55;;;10.05;;
55931;SDS011;41837;55.700;37.984;2023-08-08T11:08:30;19.58;;;8.98;;
55931;SDS011;41837;55.700;37.984;2023-08-08T11:10:58;18.15;;;9.20;;
55931;SDS011;41837;55.700;37.984;2023-08-08T11:13:25;13.30;;;10.05;;
55931;SDS011;41837;55.700;37.984;2023-08-08T11:15:52;17.77;;;9.95;;
55931;SDS011;41837;55.700;37.984;2023-08-08T11:18:18;23.77;;;8.75;;
55931;SDS011;41837;55.700;37.984;2023-08-08T11:20:44;23.75;;;8.52;;
55931;SDS011;41837;55.700;37.984;2023-08-08T11:23:11;12.48;;;7.95;;
55931;SDS011;41837;55.700;37.984;2023-08-08T11:25:42;11.48;;;7.28;;
55931;SDS011;41837;55.700;37.984;2023-08-08T11:28:11;17.58;;;10.43;;
55931;SDS011;41837;55.700;37.984;2023-08-08T11:30:38;18.88;;;8.45;;
55931;SDS011;41837;55.700;37.984;2023-08-08T11:33:07;18.05;;;8.93;;
55931;SDS011;41837;55.700;37.984;2023-08-08T11:35:34;18.75;;;8.93;;
55931;SDS011;41837;55.700;37.984;2023-08-08T11:38:00;16.95;;;8.57;;
55931;SDS011;41837;55.700;37.984;2023-08-08T11:40:28;16.70;;;8.48;;
55931;SDS011;41837;55.700;37.984;2023-08-08T11:42:55;19.40;;;8.43;;
55931;SDS011;41837;55.700;37.984;2023-08-08T11:45:25;16.52;;;8.68;;
55931;SDS011;41837;55.700;37.984;2023-08-08T11:47:55;18.30;;;9.07;;
55931;SDS011;41837;55.700;37.984;2023-08-08T11:50:23;17.50;;;8.73;;
55931;SDS011;41837;55.700;37.984;2023-08-08T11:52:53;18.05;;;8.52;;
55931;SDS011;41837;55.700;37.984;2023-08-08T11:55:20;18.13;;;7.82;;
55931;SDS011;41837;55.700;37.984;2023-08-08T11:57:53;19.52;;;10.13;;
55931;SDS011;41837;55.700;37.984;2023-08-08T12:00:25;18.25;;;10.77;;
55931;SDS011;41837;55.700;37.984;2023-08-08T12:02:54;23.40;;;15.73;;
55931;SDS011;41837;55.700;37.984;2023-08-08T12:05:21;17.35;;;9.65;;
55931;SDS011;41837;55.700;37.984;2023-08-08T12:07:48;20.10;;;11.63;;
55931;SDS011;41837;55.700;37.984;2023-08-08T12:10:18;22.23;;;11.35;;
55931;SDS011;41837;55.700;37.984;2023-08-08T12:12:53;19.30;;;9.55;;
55931;SDS011;41837;55.700;37.984;2023-08-08T12:15:22;18.38;;;8.95;;
55931;SDS011;41837;55.700;37.984;2023-08-08T12:17:48;16.40;;;9.63;;
55931;SDS011;41837;55.700;37.984;2023-08-08T12:20:15;14.98;;;7.90;;
55931;SDS011;41837;55.700;37.984;2023-08-08T12:22:41;24.20;;;8.45;;
55931;SDS011;41837;55.700;37.984;2023-08-08T12:25:08;15.75;;;8.20;;
55931;SDS011;41837;55.700;37.984;2023-08-08T12:27:34;19.83;;;8.73;;
55931;SDS011;41837;55.700;37.984;2023-08-08T12:30:00;12.73;;;8.57;;
55931;SDS011;41837;55.700;37.984;2023-08-08T12:32:30;19.50;;;9.20;;
55931;SDS011;41837;55.700;37.984;2023-08-08T12:34:57;18.25;;;9.45;;
55931;SDS011;41837;55.700;37.984;2023-08-08T12:37:24;15.30;;;8.77;;
55931;SDS011;41837;55.700;37.984;2023-08-08T12:39:50;16.88;;;8.73;;
55931;SDS011;41837;55.700;37.984;2023-08-08T12:42:17;18.45;;;8.43;;
55931;SDS011;41837;55.700;37.984;2023-08-08T12:44:44;20.42;;;7.78;;
55931;SDS011;41837;55.700;37.984;2023-08-08T12:47:12;15.77;;;7.88;;
55931;SDS011;41837;55.700;37.984;2023-08-08T12:49:39;15.10;;;7.00;;
55931;SDS011;41837;55.700;37.984;2023-08-08T12:52:05;16.48;;;7.70;;
55931;SDS011;41837;55.700;37.984;2023-08-08T12:54:31;9.98;;;6.88;;
55931;SDS011;41837;55.700;37.984;2023-08-08T12:56:57;23.52;;;7.30;;
55931;SDS011;41837;55.700;37.984;2023-08-08T12:59:23;17.15;;;7.85;;
55931;SDS011;41837;55.700;37.984;2023-08-08T13:01:50;21.98;;;8.25;;
55931;SDS011;41837;55.700;37.984;2023-08-08T13:04:16;21.70;;;8.70;;
55931;SDS011;41837;55.700;37.984;2023-08-08T13:06:43;13.75;;;7.45;;
55931;SDS011;41837;55.700;37.984;2023-08-08T13:09:09;20.60;;;8.25;;
55931;SDS011;41837;55.700;37.984;2023-08-08T13:11:36;17.33;;;8.13;;
55931;SDS011;41837;55.700;37.984;2023-08-08T13:14:02;14.63;;;8.20;;
55931;SDS011;41837;55.700;37.984;2023-08-08T13:16:29;19.05;;;9.35;;
55931;SDS011;41837;55.700;37.984;2023-08-08T13:18:55;18.23;;;8.23;;
55931;SDS011;41837;55.700;37.984;2023-08-08T13:21:22;21.77;;;8.50;;
55931;SDS011;41837;55.700;37.984;2023-08-08T13:23:48;15.88;;;8.82;;
55931;SDS011;41837;55.700;37.984;2023-08-08T13:26:15;17.13;;;8.93;;
55931;SDS011;41837;55.700;37.984;2023-08-08T13:28:42;20.45;;;8.48;;
55931;SDS011;41837;55.700;37.984;2023-08-08T13:31:08;20.33;;;8.82;;
55931;SDS011;41837;55.700;37.984;2023-08-08T13:33:34;18.65;;;8.13;;
55931;SDS011;41837;55.700;37.984;2023-08-08T13:36:01;19.20;;;8.82;;
55931;SDS011;41837;55.700;37.984;2023-08-08T13:38:27;18.48;;;8.15;;
55931;SDS011;41837;55.700;37.984;2023-08-08T13:40:53;13.32;;;8.55;;
55931;SDS011;41837;55.700;37.984;2023-08-08T13:43:20;18.05;;;8.70;;
55931;SDS011;41837;55.700;37.984;2023-08-08T13:45:47;17.45;;;8.75;;
55931;SDS011;41837;55.700;37.984;2023-08-08T13:48:13;19.13;;;9.90;;
55931;SDS011;41837;55.700;37.984;2023-08-08T13:50:39;22.45;;;10.07;;
55931;SDS011;41837;55.700;37.984;2023-08-08T13:53:06;18.65;;;10.02;;
55931;SDS011;41837;55.700;37.984;2023-08-08T13:55:32;17.58;;;9.35;;
55931;SDS011;41837;55.700;37.984;2023-08-08T13:58:04;15.32;;;9.18;;
55931;SDS011;41837;55.700;37.984;2023-08-08T14:00:31;29.52;;;8.82;;
55931;SDS011;41837;55.700;37.984;2023-08-08T14:02:57;27.88;;;10.68;;
55931;SDS011;41837;55.700;37.984;2023-08-08T14:05:24;29.70;;;9.98;;
55931;SDS011;41837;55.700;37.984;2023-08-08T14:07:52;24.40;;;9.68;;
55931;SDS011;41837;55.700;37.984;2023-08-08T14:10:18;32.28;;;10.27;;
55931;SDS011;41837;55.700;37.984;2023-08-08T14:12:45;19.00;;;9.18;;
55931;SDS011;41837;55.700;37.984;2023-08-08T14:15:12;26.48;;;9.45;;
55931;SDS011;41837;55.700;37.984;2023-08-08T14:17:38;23.98;;;9.02;;
55931;SDS011;41837;55.700;37.984;2023-08-08T14:20:05;24.33;;;9.27;;
55931;SDS011;41837;55.700;37.984;2023-08-08T14:22:33;16.08;;;8.32;;
55931;SDS011;41837;55.700;37.984;2023-08-08T14:25:00;30.73;;;8.95;;
55931;SDS011;41837;55.700;37.984;2023-08-08T14:27:29;30.02;;;10.05;;
55931;SDS011;41837;55.700;37.984;2023-08-08T14:29:56;17.92;;;9.05;;